createdAt,value
2022-08-26T00:03:36.547Z,20.10
2022-08-26T00:06:03.633Z,20.92
2022-08-26T00:08:30.604Z,23.25
2022-08-26T00:10:57.717Z,22.90
2022-08-26T00:13:26.994Z,22.88
2022-08-26T00:15:54.204Z,22.38
2022-08-26T00:18:22.414Z,22.63
2022-08-26T00:20:50.238Z,23.42
2022-08-26T00:23:18.055Z,21.83
2022-08-26T00:25:45.874Z,22.63
2022-08-26T00:28:15.124Z,21.75
2022-08-26T00:30:52.097Z,20.55
2022-08-26T00:33:20.382Z,23.60
2022-08-26T00:35:48.214Z,25.45
2022-08-26T00:38:15.434Z,26.63
2022-08-26T00:40:51.424Z,23.65
2022-08-26T00:43:18.993Z,29.15
2022-08-26T00:45:58.262Z,25.58
2022-08-26T00:48:31.789Z,29.55
2022-08-26T00:51:07.002Z,28.23
2022-08-26T00:53:39.652Z,29.25
2022-08-26T00:56:36.472Z,30.70
2022-08-26T00:59:06.972Z,26.77
2022-08-26T01:01:34.925Z,25.98
2022-08-26T01:04:02.312Z,24.95
2022-08-26T01:06:29.705Z,25.05
2022-08-26T01:08:57.962Z,23.10
2022-08-26T01:11:25.815Z,21.98
2022-08-26T01:13:56.442Z,22.75
2022-08-26T01:16:25.083Z,25.45
2022-08-26T01:18:57.043Z,24.20
2022-08-26T01:21:54.902Z,24.35
2022-08-26T01:24:21.853Z,23.52
2022-08-26T01:26:49.373Z,23.10
2022-08-26T01:29:20.190Z,24.38
2022-08-26T01:31:51.912Z,25.10
2022-08-26T01:34:26.352Z,23.35
2022-08-26T01:37:01.611Z,24.98
2022-08-26T01:39:29.091Z,25.80
2022-08-26T01:41:58.376Z,25.60
2022-08-26T01:44:36.512Z,24.65
2022-08-26T01:47:04.958Z,23.30
2022-08-26T01:49:34.509Z,21.98
2022-08-26T01:52:05.554Z,24.85
2022-08-26T01:54:33.694Z,24.30
2022-08-26T01:57:01.987Z,21.02
2022-08-26T01:59:30.130Z,23.95
2022-08-26T02:01:57.752Z,23.20
2022-08-26T02:04:29.152Z,22.45
2022-08-26T02:06:57.431Z,24.13
2022-08-26T02:09:26.978Z,23.65
2022-08-26T02:11:54.987Z,23.00
2022-08-26T02:14:26.849Z,25.10
2022-08-26T02:16:55.586Z,23.75
2022-08-26T02:19:27.941Z,23.33
2022-08-26T02:21:55.904Z,23.02
2022-08-26T02:24:27.811Z,22.13
2022-08-26T02:26:57.512Z,22.77
2022-08-26T02:29:38.526Z,24.85
2022-08-26T02:32:08.549Z,24.23
2022-08-26T02:34:36.354Z,24.20
2022-08-26T02:37:10.113Z,24.35
2022-08-26T02:39:39.435Z,23.75
2022-08-26T02:42:06.554Z,21.92
2022-08-26T02:44:34.384Z,21.98
2022-08-26T02:47:01.791Z,22.05
2022-08-26T02:49:30.550Z,23.65
2022-08-26T02:51:57.954Z,22.63
2022-08-26T02:54:29.374Z,22.45
2022-08-26T02:56:56.874Z,22.13
2022-08-26T02:59:24.684Z,23.65
2022-08-26T03:01:56.004Z,22.88
2022-08-26T03:04:25.739Z,22.92
2022-08-26T03:06:53.677Z,23.40
2022-08-26T03:09:22.446Z,22.50
2022-08-26T03:11:51.784Z,22.42
2022-08-26T03:14:18.842Z,21.77
2022-08-26T03:16:48.483Z,23.60
2022-08-26T03:19:15.604Z,23.08
2022-08-26T03:21:45.213Z,22.25
2022-08-26T03:24:15.325Z,22.10
2022-08-26T03:26:52.911Z,22.58
2022-08-26T03:29:39.903Z,23.00
2022-08-26T03:32:07.034Z,26.10
2022-08-26T03:34:37.394Z,26.05
2022-08-26T03:37:05.862Z,27.45
2022-08-26T03:39:32.904Z,23.55
2022-08-26T03:42:00.158Z,23.88
2022-08-26T03:44:27.535Z,23.58
2022-08-26T03:46:54.741Z,23.83
2022-08-26T03:49:22.453Z,22.38
2022-08-26T03:51:50.058Z,24.00
2022-08-26T03:54:17.732Z,26.13
2022-08-26T03:56:46.549Z,25.73
2022-08-26T03:59:15.854Z,25.30
2022-08-26T04:01:42.890Z,25.75
2022-08-26T04:04:10.012Z,26.85
2022-08-26T04:06:44.747Z,24.90
2022-08-26T04:09:19.195Z,24.60
2022-08-26T04:11:47.444Z,22.83
2022-08-26T04:14:21.341Z,22.23
2022-08-26T04:16:49.229Z,22.25
2022-08-26T04:19:17.653Z,22.42
2022-08-26T04:21:46.763Z,23.35
2022-08-26T04:24:16.025Z,23.38
2022-08-26T04:26:44.886Z,21.90
2022-08-26T04:29:15.076Z,22.17
2022-08-26T04:31:42.781Z,22.17
2022-08-26T04:34:11.097Z,22.20
2022-08-26T04:36:38.722Z,20.70
2022-08-26T04:39:06.126Z,21.67
2022-08-26T04:41:34.125Z,21.40
2022-08-26T04:44:02.616Z,21.85
2022-08-26T04:46:29.931Z,21.98
2022-08-26T04:48:57.012Z,20.95
2022-08-26T04:51:28.278Z,21.15
2022-08-26T04:53:57.289Z,19.77
2022-08-26T04:56:30.475Z,20.38
2022-08-26T04:58:57.507Z,21.98
2022-08-26T05:01:24.997Z,21.08
2022-08-26T05:03:52.822Z,20.35
2022-08-26T05:06:20.755Z,20.75
2022-08-26T05:08:49.108Z,21.40
2022-08-26T05:11:16.117Z,20.95
2022-08-26T05:13:43.315Z,20.45
2022-08-26T05:16:12.938Z,22.33
2022-08-26T05:18:42.995Z,20.33
2022-08-26T05:21:30.920Z,21.25
2022-08-26T05:23:58.020Z,20.23
2022-08-26T05:26:27.062Z,20.13
2022-08-26T05:28:55.555Z,22.35
2022-08-26T05:31:25.334Z,20.48
2022-08-26T05:33:52.653Z,19.50
2022-08-26T05:36:22.338Z,20.02
2022-08-26T05:38:49.798Z,19.02
2022-08-26T05:41:24.981Z,17.73
2022-08-26T05:43:52.567Z,17.30
2022-08-26T05:46:19.896Z,17.95
2022-08-26T05:48:47.083Z,18.60
2022-08-26T05:51:15.250Z,16.45
2022-08-26T05:53:54.397Z,18.73
2022-08-26T05:56:27.927Z,19.40
2022-08-26T05:58:56.532Z,16.95
2022-08-26T06:01:27.724Z,17.58
2022-08-26T06:03:57.830Z,15.57
2022-08-26T06:06:48.189Z,15.18
2022-08-26T06:09:18.267Z,16.50
2022-08-26T06:11:45.574Z,13.77
2022-08-26T06:14:12.592Z,14.35
2022-08-26T06:16:43.915Z,13.30
2022-08-26T06:19:13.662Z,12.75
2022-08-26T06:21:45.085Z,14.43
2022-08-26T06:24:32.937Z,15.02
2022-08-26T06:27:05.782Z,13.43
2022-08-26T06:29:34.885Z,13.00
2022-08-26T06:32:04.230Z,14.20
2022-08-26T06:34:31.170Z,12.07
2022-08-26T06:37:06.571Z,12.52
2022-08-26T06:39:34.312Z,12.73
2022-08-26T06:42:03.140Z,13.25
2022-08-26T06:44:33.655Z,13.57
2022-08-26T06:47:00.936Z,12.50
2022-08-26T06:49:27.951Z,12.75
2022-08-26T06:52:00.495Z,12.20
2022-08-26T06:54:31.900Z,11.85
2022-08-26T06:56:59.148Z,10.95
2022-08-26T06:59:26.196Z,11.55
2022-08-26T07:01:54.967Z,12.63
2022-08-26T07:04:23.270Z,11.25
2022-08-26T07:06:52.709Z,11.07
2022-08-26T07:09:22.318Z,11.05
2022-08-26T07:11:49.877Z,11.07
2022-08-26T07:14:19.328Z,11.75
2022-08-26T07:16:51.948Z,12.05
2022-08-26T07:19:30.464Z,11.95
2022-08-26T07:22:03.942Z,11.55
2022-08-26T07:24:33.198Z,10.45
2022-08-26T07:27:03.857Z,11.68
2022-08-26T07:29:33.380Z,10.93
2022-08-26T07:32:01.958Z,11.73
2022-08-26T07:34:29.605Z,10.98
2022-08-26T07:36:57.231Z,11.48
2022-08-26T07:39:27.126Z,11.88
2022-08-26T07:41:54.383Z,11.77
2022-08-26T07:44:21.636Z,10.43
2022-08-26T07:46:52.329Z,9.38
2022-08-26T07:49:22.416Z,11.20
2022-08-26T07:51:50.053Z,10.00
2022-08-26T07:54:17.246Z,9.95
2022-08-26T07:56:47.117Z,10.48
2022-08-26T07:59:16.931Z,9.40
2022-08-26T08:01:45.811Z,8.98
2022-08-26T08:04:17.901Z,9.13
2022-08-26T08:06:46.006Z,8.80
2022-08-26T08:10:11.768Z,8.57
2022-08-26T08:13:01.251Z,8.93
2022-08-26T08:15:38.165Z,8.52
2022-08-26T08:18:15.835Z,8.55
2022-08-26T08:21:04.754Z,7.97
2022-08-26T08:26:52.126Z,8.65
2022-08-26T08:32:46.716Z,8.95
2022-08-26T08:35:17.217Z,8.30
2022-08-26T08:37:45.257Z,8.75
2022-08-26T08:44:14.695Z,8.57
2022-08-26T08:46:44.586Z,8.07
2022-08-26T08:49:14.047Z,8.55
2022-08-26T08:51:48.265Z,9.75
2022-08-26T08:54:15.506Z,9.70
2022-08-26T08:56:55.567Z,8.23
2022-08-26T09:03:46.044Z,8.65
2022-08-26T09:06:31.834Z,7.65
2022-08-26T09:09:09.921Z,7.60
2022-08-26T09:11:51.084Z,8.88
2022-08-26T09:14:23.835Z,8.10
2022-08-26T09:17:27.163Z,7.40
2022-08-26T09:20:29.654Z,7.22
2022-08-26T09:23:10.814Z,7.65
2022-08-26T09:26:05.165Z,7.80
2022-08-26T09:29:13.026Z,7.95
2022-08-26T09:31:46.373Z,7.28
2022-08-26T09:34:26.603Z,9.18
2022-08-26T09:37:11.924Z,7.45
2022-08-26T09:39:51.666Z,7.00
2022-08-26T09:42:45.612Z,7.50
2022-08-26T09:45:50.737Z,6.60
2022-08-26T09:48:37.052Z,6.57
2022-08-26T09:51:31.474Z,6.82
2022-08-26T10:57:04.313Z,5.90
2022-08-26T11:14:28.892Z,5.88
2022-08-26T11:17:00.936Z,5.60
2022-08-26T11:20:03.306Z,6.22
2022-08-26T11:31:07.281Z,5.15
2022-08-26T11:34:47.183Z,5.22
2022-08-26T11:41:31.064Z,5.32
2022-08-26T11:43:59.797Z,5.43
2022-08-26T11:46:31.727Z,5.63
2022-08-26T11:49:05.521Z,4.65
2022-08-26T11:51:48.298Z,5.63
2022-08-26T11:58:37.799Z,5.63
2022-08-26T12:01:09.916Z,5.88
2022-08-26T12:03:45.051Z,5.20
2022-08-26T12:06:23.558Z,5.40
2022-08-26T12:08:54.341Z,5.30
2022-08-26T12:14:25.601Z,5.40
2022-08-26T12:16:55.294Z,4.75
2022-08-26T12:19:27.499Z,5.50
2022-08-26T12:22:10.041Z,5.78
2022-08-26T12:24:45.401Z,4.82
2022-08-26T12:27:15.792Z,4.60
2022-08-26T12:29:44.081Z,5.45
2022-08-26T12:32:18.849Z,5.22
2022-08-26T12:44:19.972Z,6.13
2022-08-26T13:28:36.392Z,5.35
2022-08-26T13:40:26.153Z,5.60
2022-08-26T13:44:14.926Z,4.88
2022-08-26T13:49:51.221Z,5.30
2022-08-26T13:58:52.289Z,5.35
2022-08-26T14:58:10.736Z,5.63
2022-08-26T15:01:08.154Z,5.35
2022-08-26T15:10:15.354Z,5.20
2022-08-26T15:16:35.888Z,5.90
2022-08-26T16:00:56.425Z,7.88
2022-08-26T16:03:24.111Z,7.28
2022-08-26T16:05:51.825Z,7.20
2022-08-26T16:08:19.354Z,7.03
2022-08-26T16:10:50.297Z,8.60
2022-08-26T16:39:40.258Z,9.00
2022-08-26T16:42:12.254Z,9.95
2022-08-26T16:44:44.748Z,9.27
2022-08-26T16:47:13.211Z,9.63
2022-08-26T16:49:40.779Z,8.98
2022-08-26T16:52:09.623Z,8.88
2022-08-26T16:54:37.058Z,9.23
2022-08-26T16:57:04.442Z,9.05
2022-08-26T16:59:33.101Z,8.68
2022-08-26T17:02:00.878Z,9.95
2022-08-26T17:04:28.842Z,10.27
2022-08-26T17:06:55.984Z,10.07
2022-08-26T17:09:22.822Z,9.65
2022-08-26T17:11:50.872Z,10.18
2022-08-26T17:14:18.821Z,8.73
2022-08-26T17:16:46.253Z,8.93
2022-08-26T17:19:13.142Z,8.13
2022-08-26T17:21:40.782Z,8.63
2022-08-26T17:24:07.893Z,9.35
2022-08-26T17:26:36.042Z,8.65
2022-08-26T17:29:03.063Z,9.75
2022-08-26T17:31:30.137Z,8.93
2022-08-26T17:33:57.146Z,11.25
2022-08-26T17:36:27.906Z,9.23
2022-08-26T17:38:56.417Z,9.75
2022-08-26T17:41:23.414Z,9.60
2022-08-26T17:43:51.053Z,9.68
2022-08-26T17:46:18.035Z,10.52
2022-08-26T17:48:46.923Z,10.90
2022-08-26T17:51:17.255Z,10.82
2022-08-26T17:53:44.189Z,10.45
2022-08-26T17:56:13.872Z,9.85
2022-08-26T17:58:47.442Z,11.10
2022-08-26T18:03:45.061Z,8.40
2022-08-26T18:06:13.868Z,8.13
2022-08-26T18:08:41.745Z,9.70
2022-08-26T18:11:16.789Z,9.43
2022-08-26T18:13:47.384Z,8.82
2022-08-26T18:16:15.922Z,9.65
2022-08-26T18:18:43.305Z,9.02
2022-08-26T18:21:17.230Z,8.82
2022-08-26T18:23:45.901Z,9.88
2022-08-26T18:26:27.905Z,9.43
2022-08-26T18:28:55.375Z,10.20
2022-08-26T18:31:22.469Z,9.88
2022-08-26T18:33:50.180Z,9.35
2022-08-26T18:36:19.735Z,10.02
2022-08-26T18:38:47.908Z,9.02
2022-08-26T18:41:22.048Z,9.40
2022-08-26T18:43:52.078Z,10.55
2022-08-26T18:46:22.987Z,9.77
2022-08-26T18:48:51.018Z,10.00
2022-08-26T18:51:32.673Z,10.65
2022-08-26T18:54:01.579Z,10.82
2022-08-26T18:56:29.571Z,10.75
2022-08-26T18:59:00.087Z,11.38
2022-08-26T19:01:28.903Z,11.57
2022-08-26T19:04:01.434Z,11.50
2022-08-26T19:06:31.719Z,12.02
2022-08-26T19:08:59.735Z,12.00
2022-08-26T19:11:32.667Z,11.63
2022-08-26T19:14:07.533Z,12.27
2022-08-26T19:16:35.828Z,12.57
2022-08-26T19:19:03.522Z,11.70
2022-08-26T19:21:33.262Z,11.60
2022-08-26T19:24:02.872Z,10.45
2022-08-26T19:26:31.231Z,10.52
2022-08-26T19:28:58.951Z,10.82
2022-08-26T19:31:26.072Z,10.48
2022-08-26T19:33:53.312Z,10.40
2022-08-26T19:36:24.923Z,10.60
2022-08-26T19:38:53.471Z,10.38
2022-08-26T19:41:34.118Z,8.43
2022-08-26T19:44:10.364Z,9.25
2022-08-26T19:49:05.744Z,10.85
2022-08-26T19:51:34.886Z,10.90
2022-08-26T19:54:02.377Z,10.30
2022-08-26T19:56:30.085Z,11.63
2022-08-26T19:58:57.624Z,11.25
2022-08-26T20:01:25.274Z,11.20
2022-08-26T20:03:52.980Z,10.45
2022-08-26T20:06:20.495Z,10.10
2022-08-26T20:08:48.087Z,10.35
2022-08-26T20:11:18.954Z,13.13
2022-08-26T20:13:47.375Z,12.20
2022-08-26T20:16:15.284Z,12.38
2022-08-26T20:19:37.248Z,12.80
2022-08-26T20:22:20.735Z,10.73
2022-08-26T20:28:19.523Z,10.55
2022-08-26T20:30:48.454Z,10.45
2022-08-26T20:33:15.494Z,9.88
2022-08-26T20:41:28.113Z,10.23
2022-08-26T20:44:00.791Z,10.57
2022-08-26T20:46:31.363Z,10.73
2022-08-26T20:49:05.891Z,11.18
2022-08-26T21:04:50.645Z,13.88
2022-08-26T21:07:17.782Z,13.82
2022-08-26T21:12:20.267Z,11.88
2022-08-26T21:14:49.659Z,10.80
2022-08-26T21:17:17.409Z,10.20
2022-08-26T21:19:45.023Z,11.90
2022-08-26T21:22:13.112Z,11.35
2022-08-26T21:24:40.242Z,11.27
2022-08-26T21:27:07.728Z,11.35
2022-08-26T21:29:36.995Z,11.18
2022-08-26T21:32:12.500Z,10.73
2022-08-26T21:34:46.234Z,11.70
2022-08-26T21:37:16.321Z,12.60
2022-08-26T21:39:54.280Z,12.20
2022-08-26T21:42:21.775Z,11.90
2022-08-26T21:44:52.816Z,11.00
2022-08-26T21:47:23.392Z,11.20
2022-08-26T21:49:51.303Z,10.65
2022-08-26T21:52:18.503Z,9.77
2022-08-26T21:54:49.433Z,10.25
2022-08-26T21:57:18.486Z,9.32
2022-08-26T21:59:45.569Z,10.77
2022-08-26T22:02:13.551Z,10.73
2022-08-26T22:04:43.663Z,8.98
2022-08-26T22:07:14.074Z,9.73
2022-08-26T22:09:41.984Z,10.27
2022-08-26T22:12:12.597Z,9.93
2022-08-26T22:14:40.014Z,9.75
2022-08-26T22:17:07.225Z,9.65
2022-08-26T22:19:46.481Z,9.40
2022-08-26T22:22:15.752Z,10.75
2022-08-26T22:24:43.571Z,10.18
2022-08-26T22:27:12.124Z,8.77
2022-08-26T22:29:39.716Z,8.70
2022-08-26T22:32:06.928Z,9.02
2022-08-26T22:34:34.402Z,9.77
2022-08-26T22:37:03.285Z,11.73
2022-08-26T22:39:30.274Z,10.63
2022-08-26T22:41:57.509Z,11.63
2022-08-26T22:44:29.112Z,9.93
2022-08-26T22:46:56.263Z,9.32
2022-08-26T22:49:24.121Z,9.25
2022-08-26T22:51:51.364Z,10.32
2022-08-26T22:54:18.319Z,9.48
2022-08-26T22:56:45.655Z,9.38
2022-08-26T22:59:13.598Z,8.85
2022-08-26T23:01:42.575Z,10.15
2022-08-26T23:04:11.614Z,8.57
2022-08-26T23:06:51.885Z,12.32
2022-08-26T23:09:20.022Z,11.98
2022-08-26T23:11:49.482Z,11.02
2022-08-26T23:14:18.491Z,9.70
2022-08-26T23:16:45.632Z,9.73
2022-08-26T23:19:14.904Z,9.68
2022-08-26T23:21:42.018Z,9.38
2022-08-26T23:24:09.459Z,10.13
2022-08-26T23:26:38.056Z,9.80
2022-08-26T23:29:06.636Z,10.43
2022-08-26T23:31:34.188Z,9.48
2022-08-26T23:34:21.656Z,9.05
2022-08-26T23:36:53.860Z,10.32
2022-08-26T23:39:20.871Z,10.07
2022-08-26T23:41:47.809Z,10.50
2022-08-26T23:44:14.796Z,9.73
2022-08-26T23:46:41.787Z,9.68
2022-08-26T23:49:09.064Z,9.52
2022-08-26T23:51:54.402Z,9.10
2022-08-26T23:54:21.656Z,9.20
2022-08-26T23:56:48.887Z,9.90
2022-08-26T23:59:15.874Z,9.77
